Decoded Metar for LYNI (NIS in SERBIA) (IATA:INI) | Meteo·Mobile Aviation Weather
aviador You're here:

LYNI Decoded Metar

NIS in SERBIA
Report Time2019-08-24 15:30:00
UTC Time2019-08-24 15:49:16
Flight Rules vfr VFR
Wind040° at 09 kt
W.Decomp.*RWY 11: 2.6 kt HW 8.6 kt LCW
Visibility9999 m
Phenomena:N/A
Clouds:Few 040 Hf
Expected CloudBase > 8,400 ft AGL from Temp-Dew spread
CeilingNone
Temp34°C (ISA +20)
Dew Point13°C (28% RH)
Heat Index33.0°C
AAT31.7°C
QNH1017 hPa
Density Alt3,038 ft
Elevation663 ft
Report Wrong Elevation
Raw Report
LYNI 241530Z 04009KT 9999 FEW040 34/13 Q1017 NOSIG=

Extra information for LYNI:More info

Metar Taf Metar & Taf Last 4 Metars F.Rules Stats Wind Profile Meteogram Temp Stats Airport Information Weather charts Add Link Nearby VenuesMetar ALERT Operation Metar Decoded Social comments